sensor_id;sensor_type;location;lat;lon;timestamp;P1;durP1;ratioP1;P2;durP2;ratioP2
5010;SDS011;2524;54.364;10.072;2023-07-29T00:01:08;2.40;;;2.30;;
5010;SDS011;2524;54.364;10.072;2023-07-29T00:03:33;2.77;;;2.67;;
5010;SDS011;2524;54.364;10.072;2023-07-29T00:05:59;2.40;;;2.30;;
5010;SDS011;2524;54.364;10.072;2023-07-29T00:08:24;2.73;;;2.63;;
5010;SDS011;2524;54.364;10.072;2023-07-29T00:10:50;2.40;;;2.30;;
5010;SDS011;2524;54.364;10.072;2023-07-29T00:13:16;2.50;;;2.40;;
5010;SDS011;2524;54.364;10.072;2023-07-29T00:15:41;2.40;;;2.30;;
5010;SDS011;2524;54.364;10.072;2023-07-29T00:18:07;2.77;;;2.67;;
5010;SDS011;2524;54.364;10.072;2023-07-29T00:20:32;2.80;;;2.60;;
5010;SDS011;2524;54.364;10.072;2023-07-29T00:22:58;2.47;;;2.37;;
5010;SDS011;2524;54.364;10.072;2023-07-29T00:25:24;2.20;;;2.10;;
5010;SDS011;2524;54.364;10.072;2023-07-29T00:27:49;2.60;;;2.50;;
5010;SDS011;2524;54.364;10.072;2023-07-29T00:30:15;3.93;;;3.63;;
5010;SDS011;2524;54.364;10.072;2023-07-29T00:32:40;2.93;;;2.70;;
5010;SDS011;2524;54.364;10.072;2023-07-29T00:35:06;2.77;;;2.67;;
5010;SDS011;2524;54.364;10.072;2023-07-29T00:37:32;2.30;;;2.20;;
5010;SDS011;2524;54.364;10.072;2023-07-29T00:39:57;2.67;;;2.57;;
5010;SDS011;2524;54.364;10.072;2023-07-29T00:42:23;2.27;;;2.17;;
5010;SDS011;2524;54.364;10.072;2023-07-29T00:44:49;2.10;;;2.00;;
5010;SDS011;2524;54.364;10.072;2023-07-29T00:47:15;2.73;;;2.63;;
5010;SDS011;2524;54.364;10.072;2023-07-29T00:49:41;3.10;;;2.90;;
5010;SDS011;2524;54.364;10.072;2023-07-29T00:52:10;2.23;;;2.13;;
5010;SDS011;2524;54.364;10.072;2023-07-29T00:54:38;2.60;;;2.50;;
5010;SDS011;2524;54.364;10.072;2023-07-29T00:57:04;3.00;;;2.80;;
5010;SDS011;2524;54.364;10.072;2023-07-29T00:59:31;3.70;;;3.50;;
5010;SDS011;2524;54.364;10.072;2023-07-29T01:01:58;3.43;;;3.23;;
5010;SDS011;2524;54.364;10.072;2023-07-29T01:04:27;3.50;;;3.30;;
5010;SDS011;2524;54.364;10.072;2023-07-29T01:07:14;2.90;;;2.70;;
5010;SDS011;2524;54.364;10.072;2023-07-29T01:10:09;3.07;;;2.87;;
5010;SDS011;2524;54.364;10.072;2023-07-29T01:13:17;2.27;;;2.17;;
5010;SDS011;2524;54.364;10.072;2023-07-29T01:15:43;2.60;;;2.50;;
5010;SDS011;2524;54.364;10.072;2023-07-29T01:18:22;2.60;;;2.50;;
5010;SDS011;2524;54.364;10.072;2023-07-29T01:20:51;2.73;;;2.60;;
5010;SDS011;2524;54.364;10.072;2023-07-29T01:23:25;3.10;;;2.97;;
5010;SDS011;2524;54.364;10.072;2023-07-29T01:25:53;3.40;;;3.20;;
5010;SDS011;2524;54.364;10.072;2023-07-29T01:28:19;3.13;;;2.93;;
5010;SDS011;2524;54.364;10.072;2023-07-29T01:30:45;5.13;;;4.57;;
5010;SDS011;2524;54.364;10.072;2023-07-29T01:33:18;4.27;;;3.97;;
5010;SDS011;2524;54.364;10.072;2023-07-29T01:36:11;3.30;;;3.10;;
5010;SDS011;2524;54.364;10.072;2023-07-29T01:38:40;4.03;;;3.80;;
5010;SDS011;2524;54.364;10.072;2023-07-29T01:41:07;3.27;;;3.07;;
5010;SDS011;2524;54.364;10.072;2023-07-29T01:43:33;2.90;;;2.70;;
5010;SDS011;2524;54.364;10.072;2023-07-29T01:46:04;2.83;;;2.63;;
5010;SDS011;2524;54.364;10.072;2023-07-29T01:48:30;4.50;;;4.10;;
5010;SDS011;2524;54.364;10.072;2023-07-29T01:50:56;4.20;;;3.90;;
5010;SDS011;2524;54.364;10.072;2023-07-29T01:53:22;2.90;;;2.70;;
5010;SDS011;2524;54.364;10.072;2023-07-29T01:55:48;2.83;;;2.63;;
5010;SDS011;2524;54.364;10.072;2023-07-29T01:58:14;2.50;;;2.40;;
5010;SDS011;2524;54.364;10.072;2023-07-29T02:00:39;2.50;;;2.40;;
5010;SDS011;2524;54.364;10.072;2023-07-29T02:03:05;2.70;;;2.50;;
5010;SDS011;2524;54.364;10.072;2023-07-29T02:05:30;3.30;;;3.10;;
5010;SDS011;2524;54.364;10.072;2023-07-29T02:07:56;3.80;;;3.50;;
5010;SDS011;2524;54.364;10.072;2023-07-29T02:10:22;2.60;;;2.50;;
5010;SDS011;2524;54.364;10.072;2023-07-29T02:12:47;2.50;;;2.30;;
5010;SDS011;2524;54.364;10.072;2023-07-29T02:15:13;2.20;;;2.10;;
5010;SDS011;2524;54.364;10.072;2023-07-29T02:17:40;2.33;;;2.27;;
5010;SDS011;2524;54.364;10.072;2023-07-29T02:20:07;3.00;;;2.80;;
5010;SDS011;2524;54.364;10.072;2023-07-29T02:22:33;2.23;;;2.13;;
5010;SDS011;2524;54.364;10.072;2023-07-29T02:24:59;2.50;;;2.40;;
5010;SDS011;2524;54.364;10.072;2023-07-29T02:27:25;2.60;;;2.43;;
5010;SDS011;2524;54.364;10.072;2023-07-29T02:29:52;2.77;;;2.40;;
5010;SDS011;2524;54.364;10.072;2023-07-29T02:32:18;2.23;;;2.13;;
5010;SDS011;2524;54.364;10.072;2023-07-29T02:34:44;2.70;;;2.60;;
5010;SDS011;2524;54.364;10.072;2023-07-29T02:37:09;2.63;;;2.53;;
5010;SDS011;2524;54.364;10.072;2023-07-29T02:39:35;3.50;;;3.30;;
5010;SDS011;2524;54.364;10.072;2023-07-29T02:42:01;2.50;;;2.40;;
5010;SDS011;2524;54.364;10.072;2023-07-29T02:44:26;2.70;;;2.40;;
5010;SDS011;2524;54.364;10.072;2023-07-29T02:46:52;2.80;;;2.70;;
5010;SDS011;2524;54.364;10.072;2023-07-29T02:49:19;2.50;;;2.40;;
5010;SDS011;2524;54.364;10.072;2023-07-29T02:51:45;2.17;;;2.07;;
5010;SDS011;2524;54.364;10.072;2023-07-29T02:54:10;2.50;;;2.40;;
5010;SDS011;2524;54.364;10.072;2023-07-29T02:56:36;2.17;;;2.07;;
5010;SDS011;2524;54.364;10.072;2023-07-29T02:59:01;2.80;;;2.60;;
5010;SDS011;2524;54.364;10.072;2023-07-29T03:01:27;2.40;;;2.30;;
5010;SDS011;2524;54.364;10.072;2023-07-29T03:03:52;2.33;;;2.23;;
5010;SDS011;2524;54.364;10.072;2023-07-29T03:06:18;2.43;;;2.33;;
5010;SDS011;2524;54.364;10.072;2023-07-29T03:08:44;2.37;;;2.27;;
5010;SDS011;2524;54.364;10.072;2023-07-29T03:11:12;3.10;;;2.90;;
5010;SDS011;2524;54.364;10.072;2023-07-29T03:13:39;3.30;;;3.10;;
5010;SDS011;2524;54.364;10.072;2023-07-29T03:18:34;2.50;;;2.40;;
5010;SDS011;2524;54.364;10.072;2023-07-29T03:21:00;2.73;;;2.63;;
5010;SDS011;2524;54.364;10.072;2023-07-29T03:23:25;2.83;;;2.73;;
5010;SDS011;2524;54.364;10.072;2023-07-29T03:25:52;2.40;;;2.30;;
5010;SDS011;2524;54.364;10.072;2023-07-29T03:28:27;3.30;;;3.10;;
5010;SDS011;2524;54.364;10.072;2023-07-29T03:30:56;3.60;;;3.40;;
5010;SDS011;2524;54.364;10.072;2023-07-29T03:33:22;4.40;;;4.10;;
5010;SDS011;2524;54.364;10.072;2023-07-29T03:35:49;3.30;;;3.10;;
5010;SDS011;2524;54.364;10.072;2023-07-29T03:38:14;3.30;;;3.10;;
5010;SDS011;2524;54.364;10.072;2023-07-29T03:40:40;5.10;;;4.70;;
5010;SDS011;2524;54.364;10.072;2023-07-29T03:43:06;3.07;;;2.93;;
5010;SDS011;2524;54.364;10.072;2023-07-29T03:45:33;2.73;;;2.63;;
5010;SDS011;2524;54.364;10.072;2023-07-29T03:47:59;2.80;;;2.70;;
5010;SDS011;2524;54.364;10.072;2023-07-29T03:50:25;5.53;;;4.03;;
5010;SDS011;2524;54.364;10.072;2023-07-29T03:52:51;3.67;;;3.47;;
5010;SDS011;2524;54.364;10.072;2023-07-29T03:55:16;3.23;;;3.13;;
5010;SDS011;2524;54.364;10.072;2023-07-29T03:57:42;2.90;;;2.80;;
5010;SDS011;2524;54.364;10.072;2023-07-29T04:00:07;2.33;;;2.23;;
5010;SDS011;2524;54.364;10.072;2023-07-29T04:02:36;2.30;;;2.20;;
5010;SDS011;2524;54.364;10.072;2023-07-29T04:05:03;2.50;;;2.40;;
5010;SDS011;2524;54.364;10.072;2023-07-29T04:07:29;3.10;;;2.90;;
5010;SDS011;2524;54.364;10.072;2023-07-29T04:09:55;2.70;;;2.60;;
5010;SDS011;2524;54.364;10.072;2023-07-29T04:12:21;2.37;;;2.27;;
5010;SDS011;2524;54.364;10.072;2023-07-29T04:14:47;2.90;;;2.80;;
5010;SDS011;2524;54.364;10.072;2023-07-29T04:17:13;2.30;;;2.20;;
5010;SDS011;2524;54.364;10.072;2023-07-29T04:19:38;2.70;;;2.60;;
5010;SDS011;2524;54.364;10.072;2023-07-29T04:22:04;2.93;;;2.73;;
5010;SDS011;2524;54.364;10.072;2023-07-29T04:24:29;3.10;;;2.90;;
5010;SDS011;2524;54.364;10.072;2023-07-29T04:26:55;2.80;;;2.70;;
5010;SDS011;2524;54.364;10.072;2023-07-29T04:29:20;2.50;;;2.37;;
5010;SDS011;2524;54.364;10.072;2023-07-29T04:31:47;3.10;;;2.90;;
5010;SDS011;2524;54.364;10.072;2023-07-29T04:34:13;2.90;;;2.70;;
5010;SDS011;2524;54.364;10.072;2023-07-29T04:36:39;2.87;;;2.67;;
5010;SDS011;2524;54.364;10.072;2023-07-29T04:39:04;6.03;;;3.20;;
5010;SDS011;2524;54.364;10.072;2023-07-29T04:41:30;2.93;;;2.73;;
5010;SDS011;2524;54.364;10.072;2023-07-29T04:43:56;2.97;;;2.77;;
5010;SDS011;2524;54.364;10.072;2023-07-29T04:46:21;3.60;;;3.30;;
5010;SDS011;2524;54.364;10.072;2023-07-29T04:48:47;2.73;;;2.57;;
5010;SDS011;2524;54.364;10.072;2023-07-29T04:51:12;2.83;;;2.63;;
5010;SDS011;2524;54.364;10.072;2023-07-29T04:53:38;2.40;;;2.30;;
5010;SDS011;2524;54.364;10.072;2023-07-29T04:56:04;2.20;;;2.10;;
5010;SDS011;2524;54.364;10.072;2023-07-29T04:58:30;2.30;;;2.20;;
5010;SDS011;2524;54.364;10.072;2023-07-29T05:00:55;2.47;;;2.37;;
5010;SDS011;2524;54.364;10.072;2023-07-29T05:03:21;2.77;;;2.57;;
5010;SDS011;2524;54.364;10.072;2023-07-29T05:05:47;2.40;;;2.30;;
5010;SDS011;2524;54.364;10.072;2023-07-29T05:08:12;2.13;;;2.03;;
5010;SDS011;2524;54.364;10.072;2023-07-29T05:10:38;1.90;;;1.80;;
5010;SDS011;2524;54.364;10.072;2023-07-29T05:13:03;2.20;;;2.10;;
5010;SDS011;2524;54.364;10.072;2023-07-29T05:15:29;2.03;;;1.93;;
5010;SDS011;2524;54.364;10.072;2023-07-29T05:17:55;2.57;;;2.47;;
5010;SDS011;2524;54.364;10.072;2023-07-29T05:20:21;2.47;;;2.37;;
5010;SDS011;2524;54.364;10.072;2023-07-29T05:22:47;2.17;;;2.07;;
5010;SDS011;2524;54.364;10.072;2023-07-29T05:25:12;2.13;;;2.03;;
5010;SDS011;2524;54.364;10.072;2023-07-29T05:27:38;2.80;;;2.60;;
5010;SDS011;2524;54.364;10.072;2023-07-29T05:30:03;2.17;;;2.07;;
5010;SDS011;2524;54.364;10.072;2023-07-29T05:32:29;2.17;;;2.07;;
5010;SDS011;2524;54.364;10.072;2023-07-29T05:34:55;2.47;;;2.37;;
5010;SDS011;2524;54.364;10.072;2023-07-29T05:37:20;3.00;;;2.80;;
5010;SDS011;2524;54.364;10.072;2023-07-29T05:39:46;3.00;;;2.80;;
5010;SDS011;2524;54.364;10.072;2023-07-29T05:42:11;3.50;;;3.20;;
5010;SDS011;2524;54.364;10.072;2023-07-29T05:44:37;5.23;;;4.53;;
5010;SDS011;2524;54.364;10.072;2023-07-29T05:47:03;4.27;;;3.90;;
5010;SDS011;2524;54.364;10.072;2023-07-29T05:49:28;6.30;;;5.10;;
5010;SDS011;2524;54.364;10.072;2023-07-29T05:51:54;4.10;;;3.80;;
5010;SDS011;2524;54.364;10.072;2023-07-29T05:54:19;6.17;;;5.57;;
5010;SDS011;2524;54.364;10.072;2023-07-29T05:56:45;6.00;;;5.10;;
5010;SDS011;2524;54.364;10.072;2023-07-29T05:59:11;10.10;;;7.00;;
5010;SDS011;2524;54.364;10.072;2023-07-29T06:01:36;14.53;;;9.60;;
5010;SDS011;2524;54.364;10.072;2023-07-29T06:04:02;6.83;;;6.13;;
5010;SDS011;2524;54.364;10.072;2023-07-29T06:06:27;9.77;;;8.20;;
5010;SDS011;2524;54.364;10.072;2023-07-29T06:08:53;10.47;;;7.00;;
5010;SDS011;2524;54.364;10.072;2023-07-29T06:11:18;6.90;;;6.20;;
5010;SDS011;2524;54.364;10.072;2023-07-29T06:13:44;6.07;;;5.47;;
5010;SDS011;2524;54.364;10.072;2023-07-29T06:16:10;9.50;;;8.17;;
5010;SDS011;2524;54.364;10.072;2023-07-29T06:18:36;7.40;;;6.70;;
5010;SDS011;2524;54.364;10.072;2023-07-29T06:21:01;5.80;;;5.30;;
5010;SDS011;2524;54.364;10.072;2023-07-29T06:23:27;6.33;;;5.80;;
5010;SDS011;2524;54.364;10.072;2023-07-29T06:25:53;3.77;;;3.57;;
5010;SDS011;2524;54.364;10.072;2023-07-29T06:28:18;6.00;;;5.50;;
5010;SDS011;2524;54.364;10.072;2023-07-29T06:30:44;6.20;;;5.60;;
5010;SDS011;2524;54.364;10.072;2023-07-29T06:33:09;4.60;;;4.30;;
5010;SDS011;2524;54.364;10.072;2023-07-29T06:35:35;5.23;;;4.63;;
5010;SDS011;2524;54.364;10.072;2023-07-29T06:38:00;2.80;;;2.70;;
5010;SDS011;2524;54.364;10.072;2023-07-29T06:40:26;3.03;;;2.83;;
5010;SDS011;2524;54.364;10.072;2023-07-29T06:42:51;3.30;;;3.10;;
5010;SDS011;2524;54.364;10.072;2023-07-29T06:45:17;3.70;;;3.50;;
5010;SDS011;2524;54.364;10.072;2023-07-29T06:47:43;2.70;;;2.60;;
5010;SDS011;2524;54.364;10.072;2023-07-29T06:50:08;2.83;;;2.73;;
5010;SDS011;2524;54.364;10.072;2023-07-29T06:52:34;2.20;;;2.10;;
5010;SDS011;2524;54.364;10.072;2023-07-29T06:55:01;3.33;;;3.13;;
5010;SDS011;2524;54.364;10.072;2023-07-29T06:57:27;2.47;;;2.37;;
5010;SDS011;2524;54.364;10.072;2023-07-29T06:59:53;2.50;;;2.40;;
5010;SDS011;2524;54.364;10.072;2023-07-29T07:02:18;2.40;;;2.30;;
5010;SDS011;2524;54.364;10.072;2023-07-29T07:04:44;2.00;;;2.00;;
5010;SDS011;2524;54.364;10.072;2023-07-29T07:07:10;3.13;;;2.93;;
5010;SDS011;2524;54.364;10.072;2023-07-29T07:09:35;3.80;;;3.50;;
5010;SDS011;2524;54.364;10.072;2023-07-29T07:12:01;2.80;;;2.70;;
5010;SDS011;2524;54.364;10.072;2023-07-29T07:14:26;3.40;;;3.17;;
5010;SDS011;2524;54.364;10.072;2023-07-29T07:16:52;2.40;;;2.30;;
5010;SDS011;2524;54.364;10.072;2023-07-29T07:19:17;2.57;;;2.47;;
5010;SDS011;2524;54.364;10.072;2023-07-29T07:21:43;2.10;;;2.00;;
5010;SDS011;2524;54.364;10.072;2023-07-29T07:24:09;2.80;;;2.60;;
5010;SDS011;2524;54.364;10.072;2023-07-29T07:26:34;2.13;;;2.03;;
5010;SDS011;2524;54.364;10.072;2023-07-29T07:29:00;5.07;;;3.50;;
5010;SDS011;2524;54.364;10.072;2023-07-29T07:31:25;3.50;;;3.30;;
5010;SDS011;2524;54.364;10.072;2023-07-29T07:33:51;4.73;;;4.10;;
5010;SDS011;2524;54.364;10.072;2023-07-29T07:36:16;3.87;;;3.67;;
5010;SDS011;2524;54.364;10.072;2023-07-29T07:38:42;5.00;;;4.60;;
5010;SDS011;2524;54.364;10.072;2023-07-29T07:41:07;5.03;;;4.63;;
5010;SDS011;2524;54.364;10.072;2023-07-29T07:43:33;8.10;;;7.30;;
5010;SDS011;2524;54.364;10.072;2023-07-29T08:12:53;7.23;;;6.53;;
5010;SDS011;2524;54.364;10.072;2023-07-29T08:17:45;5.20;;;4.83;;
5010;SDS011;2524;54.364;10.072;2023-07-29T08:20:11;5.13;;;4.73;;
5010;SDS011;2524;54.364;10.072;2023-07-29T08:22:36;4.73;;;4.43;;
5010;SDS011;2524;54.364;10.072;2023-07-29T08:25:02;7.80;;;6.20;;
5010;SDS011;2524;54.364;10.072;2023-07-29T08:32:18;6.50;;;5.90;;
5010;SDS011;2524;54.364;10.072;2023-07-29T08:34:44;4.30;;;4.00;;
5010;SDS011;2524;54.364;10.072;2023-07-29T08:37:09;6.73;;;6.23;;
5010;SDS011;2524;54.364;10.072;2023-07-29T08:39:35;4.60;;;4.30;;
5010;SDS011;2524;54.364;10.072;2023-07-29T08:44:26;5.63;;;5.13;;
5010;SDS011;2524;54.364;10.072;2023-07-29T08:46:55;5.30;;;4.90;;
5010;SDS011;2524;54.364;10.072;2023-07-29T08:49:22;4.87;;;4.57;;
5010;SDS011;2524;54.364;10.072;2023-07-29T08:51:49;5.30;;;4.90;;
5010;SDS011;2524;54.364;10.072;2023-07-29T08:54:18;7.50;;;6.83;;
5010;SDS011;2524;54.364;10.072;2023-07-29T08:56:44;5.27;;;4.80;;
5010;SDS011;2524;54.364;10.072;2023-07-29T08:59:10;4.53;;;4.23;;
5010;SDS011;2524;54.364;10.072;2023-07-29T09:01:41;6.47;;;5.47;;
5010;SDS011;2524;54.364;10.072;2023-07-29T09:04:06;5.30;;;4.80;;
5010;SDS011;2524;54.364;10.072;2023-07-29T09:06:32;7.23;;;6.40;;
5010;SDS011;2524;54.364;10.072;2023-07-29T09:11:25;5.90;;;5.40;;
5010;SDS011;2524;54.364;10.072;2023-07-29T09:13:52;3.80;;;3.60;;
5010;SDS011;2524;54.364;10.072;2023-07-29T09:16:18;6.63;;;6.03;;
5010;SDS011;2524;54.364;10.072;2023-07-29T09:18:47;5.30;;;4.90;;
5010;SDS011;2524;54.364;10.072;2023-07-29T09:21:15;4.40;;;4.10;;
5010;SDS011;2524;54.364;10.072;2023-07-29T09:23:43;5.33;;;4.83;;
5010;SDS011;2524;54.364;10.072;2023-07-29T09:26:09;6.07;;;5.53;;
5010;SDS011;2524;54.364;10.072;2023-07-29T09:28:37;4.07;;;3.80;;
5010;SDS011;2524;54.364;10.072;2023-07-29T09:31:04;4.43;;;4.10;;
5010;SDS011;2524;54.364;10.072;2023-07-29T09:33:32;4.20;;;3.90;;
5010;SDS011;2524;54.364;10.072;2023-07-29T09:36:01;5.13;;;4.73;;
5010;SDS011;2524;54.364;10.072;2023-07-29T09:38:33;4.20;;;3.90;;
5010;SDS011;2524;54.364;10.072;2023-07-29T09:41:00;5.23;;;4.87;;
5010;SDS011;2524;54.364;10.072;2023-07-29T09:43:29;3.80;;;3.50;;
5010;SDS011;2524;54.364;10.072;2023-07-29T09:46:02;5.40;;;5.00;;
5010;SDS011;2524;54.364;10.072;2023-07-29T09:48:35;5.97;;;5.53;;
5010;SDS011;2524;54.364;10.072;2023-07-29T09:53:27;4.20;;;3.80;;
5010;SDS011;2524;54.364;10.072;2023-07-29T09:55:53;3.57;;;3.37;;
5010;SDS011;2524;54.364;10.072;2023-07-29T09:58:28;3.40;;;3.20;;
5010;SDS011;2524;54.364;10.072;2023-07-29T10:00:53;3.10;;;2.90;;
5010;SDS011;2524;54.364;10.072;2023-07-29T10:03:20;3.23;;;3.03;;
5010;SDS011;2524;54.364;10.072;2023-07-29T10:05:46;3.17;;;2.97;;
5010;SDS011;2524;54.364;10.072;2023-07-29T10:08:13;3.27;;;3.13;;
5010;SDS011;2524;54.364;10.072;2023-07-29T10:10:40;2.80;;;2.70;;
5010;SDS011;2524;54.364;10.072;2023-07-29T10:13:07;3.00;;;2.87;;
5010;SDS011;2524;54.364;10.072;2023-07-29T10:15:34;2.70;;;2.60;;
5010;SDS011;2524;54.364;10.072;2023-07-29T10:18:00;2.33;;;2.23;;
5010;SDS011;2524;54.364;10.072;2023-07-29T10:20:28;2.63;;;2.50;;
5010;SDS011;2524;54.364;10.072;2023-07-29T10:22:56;2.80;;;2.60;;
5010;SDS011;2524;54.364;10.072;2023-07-29T10:25:25;2.90;;;2.80;;
5010;SDS011;2524;54.364;10.072;2023-07-29T10:28:06;2.90;;;2.80;;
5010;SDS011;2524;54.364;10.072;2023-07-29T10:30:32;2.60;;;2.50;;
5010;SDS011;2524;54.364;10.072;2023-07-29T10:32:59;2.10;;;2.00;;
5010;SDS011;2524;54.364;10.072;2023-07-29T10:35:28;2.67;;;2.57;;
5010;SDS011;2524;54.364;10.072;2023-07-29T10:37:53;2.47;;;2.33;;
5010;SDS011;2524;54.364;10.072;2023-07-29T10:40:20;2.50;;;2.40;;
5010;SDS011;2524;54.364;10.072;2023-07-29T10:42:59;2.37;;;2.27;;
5010;SDS011;2524;54.364;10.072;2023-07-29T10:45:28;1.87;;;1.77;;
5010;SDS011;2524;54.364;10.072;2023-07-29T10:48:06;2.23;;;2.13;;
5010;SDS011;2524;54.364;10.072;2023-07-29T10:50:35;2.10;;;2.00;;
5010;SDS011;2524;54.364;10.072;2023-07-29T10:53:01;1.83;;;1.83;;
5010;SDS011;2524;54.364;10.072;2023-07-29T10:55:33;1.53;;;1.53;;
5010;SDS011;2524;54.364;10.072;2023-07-29T10:58:07;1.30;;;1.30;;
5010;SDS011;2524;54.364;10.072;2023-07-29T11:08:15;1.60;;;1.60;;
5010;SDS011;2524;54.364;10.072;2023-07-29T11:13:28;1.53;;;1.50;;
5010;SDS011;2524;54.364;10.072;2023-07-29T11:15:55;2.60;;;1.97;;
5010;SDS011;2524;54.364;10.072;2023-07-29T11:18:23;1.83;;;1.73;;
5010;SDS011;2524;54.364;10.072;2023-07-29T11:20:53;2.87;;;1.90;;
5010;SDS011;2524;54.364;10.072;2023-07-29T11:23:19;1.60;;;1.50;;
5010;SDS011;2524;54.364;10.072;2023-07-29T11:25:45;1.70;;;1.60;;
5010;SDS011;2524;54.364;10.072;2023-07-29T11:28:11;2.00;;;1.90;;
5010;SDS011;2524;54.364;10.072;2023-07-29T11:30:39;1.70;;;1.67;;
5010;SDS011;2524;54.364;10.072;2023-07-29T11:33:05;1.30;;;1.30;;
5010;SDS011;2524;54.364;10.072;2023-07-29T11:35:31;1.60;;;1.50;;
5010;SDS011;2524;54.364;10.072;2023-07-29T11:37:57;1.60;;;1.60;;
5010;SDS011;2524;54.364;10.072;2023-07-29T11:40:23;1.77;;;1.67;;
5010;SDS011;2524;54.364;10.072;2023-07-29T11:42:50;1.63;;;1.53;;
5010;SDS011;2524;54.364;10.072;2023-07-29T11:45:16;1.70;;;1.60;;
5010;SDS011;2524;54.364;10.072;2023-07-29T11:47:42;1.63;;;1.57;;
5010;SDS011;2524;54.364;10.072;2023-07-29T11:50:09;1.97;;;1.87;;
5010;SDS011;2524;54.364;10.072;2023-07-29T11:52:37;1.50;;;1.40;;
5010;SDS011;2524;54.364;10.072;2023-07-29T11:55:04;1.20;;;1.20;;
5010;SDS011;2524;54.364;10.072;2023-07-29T11:57:30;1.10;;;1.10;;
5010;SDS011;2524;54.364;10.072;2023-07-29T11:59:58;1.37;;;1.37;;
5010;SDS011;2524;54.364;10.072;2023-07-29T12:02:24;1.37;;;1.27;;
5010;SDS011;2524;54.364;10.072;2023-07-29T12:04:50;1.90;;;1.80;;
5010;SDS011;2524;54.364;10.072;2023-07-29T12:07:17;3.00;;;1.90;;
5010;SDS011;2524;54.364;10.072;2023-07-29T12:09:43;1.80;;;1.70;;
5010;SDS011;2524;54.364;10.072;2023-07-29T12:12:11;1.67;;;1.57;;
5010;SDS011;2524;54.364;10.072;2023-07-29T12:14:37;1.40;;;1.30;;
5010;SDS011;2524;54.364;10.072;2023-07-29T12:17:03;2.40;;;1.70;;
5010;SDS011;2524;54.364;10.072;2023-07-29T12:19:33;1.60;;;1.50;;
5010;SDS011;2524;54.364;10.072;2023-07-29T12:22:00;1.50;;;1.40;;
5010;SDS011;2524;54.364;10.072;2023-07-29T12:24:26;1.40;;;1.40;;
5010;SDS011;2524;54.364;10.072;2023-07-29T12:26:52;1.47;;;1.43;;
5010;SDS011;2524;54.364;10.072;2023-07-29T12:29:18;1.50;;;1.40;;
5010;SDS011;2524;54.364;10.072;2023-07-29T12:31:47;1.70;;;1.60;;
5010;SDS011;2524;54.364;10.072;2023-07-29T12:34:17;1.50;;;1.40;;
5010;SDS011;2524;54.364;10.072;2023-07-29T12:36:47;1.50;;;1.40;;
5010;SDS011;2524;54.364;10.072;2023-07-29T12:39:17;2.10;;;1.60;;
5010;SDS011;2524;54.364;10.072;2023-07-29T12:41:52;1.53;;;1.43;;
5010;SDS011;2524;54.364;10.072;2023-07-29T12:44:19;1.30;;;1.30;;
5010;SDS011;2524;54.364;10.072;2023-07-29T12:46:44;1.20;;;1.20;;
5010;SDS011;2524;54.364;10.072;2023-07-29T12:49:11;1.37;;;1.37;;
5010;SDS011;2524;54.364;10.072;2023-07-29T12:51:36;1.40;;;1.40;;
5010;SDS011;2524;54.364;10.072;2023-07-29T12:54:02;1.87;;;1.60;;
5010;SDS011;2524;54.364;10.072;2023-07-29T12:56:29;1.63;;;1.53;;
5010;SDS011;2524;54.364;10.072;2023-07-29T12:58:58;1.43;;;1.33;;
5010;SDS011;2524;54.364;10.072;2023-07-29T13:01:24;2.00;;;1.90;;
5010;SDS011;2524;54.364;10.072;2023-07-29T13:03:50;2.20;;;2.00;;
5010;SDS011;2524;54.364;10.072;2023-07-29T13:06:16;2.60;;;1.70;;
5010;SDS011;2524;54.364;10.072;2023-07-29T13:08:42;2.17;;;1.90;;
5010;SDS011;2524;54.364;10.072;2023-07-29T13:11:08;2.20;;;2.10;;
5010;SDS011;2524;54.364;10.072;2023-07-29T13:13:34;2.00;;;1.90;;
5010;SDS011;2524;54.364;10.072;2023-07-29T13:16:00;2.97;;;2.00;;
5010;SDS011;2524;54.364;10.072;2023-07-29T13:18:26;1.80;;;1.70;;
5010;SDS011;2524;54.364;10.072;2023-07-29T13:20:52;2.00;;;1.80;;
5010;SDS011;2524;54.364;10.072;2023-07-29T13:23:17;2.87;;;1.60;;
5010;SDS011;2524;54.364;10.072;2023-07-29T13:25:43;3.57;;;1.90;;
5010;SDS011;2524;54.364;10.072;2023-07-29T13:28:09;1.67;;;1.67;;
5010;SDS011;2524;54.364;10.072;2023-07-29T13:30:35;1.50;;;1.37;;
5010;SDS011;2524;54.364;10.072;2023-07-29T13:33:00;1.57;;;1.47;;
5010;SDS011;2524;54.364;10.072;2023-07-29T13:35:26;2.53;;;2.33;;
5010;SDS011;2524;54.364;10.072;2023-07-29T13:37:52;2.17;;;2.03;;
5010;SDS011;2524;54.364;10.072;2023-07-29T13:40:17;1.80;;;1.70;;
5010;SDS011;2524;54.364;10.072;2023-07-29T13:42:43;2.27;;;1.73;;
5010;SDS011;2524;54.364;10.072;2023-07-29T13:45:09;1.70;;;1.60;;
5010;SDS011;2524;54.364;10.072;2023-07-29T13:47:34;2.40;;;1.87;;
5010;SDS011;2524;54.364;10.072;2023-07-29T13:50:00;1.90;;;1.80;;
5010;SDS011;2524;54.364;10.072;2023-07-29T13:52:27;1.37;;;1.30;;
5010;SDS011;2524;54.364;10.072;2023-07-29T13:54:53;2.17;;;1.60;;
5010;SDS011;2524;54.364;10.072;2023-07-29T13:57:18;1.63;;;1.50;;
5010;SDS011;2524;54.364;10.072;2023-07-29T13:59:44;1.40;;;1.30;;
5010;SDS011;2524;54.364;10.072;2023-07-29T14:02:09;2.77;;;1.40;;
5010;SDS011;2524;54.364;10.072;2023-07-29T14:04:35;1.80;;;1.70;;
5010;SDS011;2524;54.364;10.072;2023-07-29T14:07:00;1.80;;;1.70;;
5010;SDS011;2524;54.364;10.072;2023-07-29T14:09:26;1.50;;;1.40;;
5010;SDS011;2524;54.364;10.072;2023-07-29T14:11:53;2.00;;;1.73;;
5010;SDS011;2524;54.364;10.072;2023-07-29T14:14:19;1.20;;;1.20;;
5010;SDS011;2524;54.364;10.072;2023-07-29T14:16:44;1.40;;;1.30;;
5010;SDS011;2524;54.364;10.072;2023-07-29T14:19:10;6.67;;;1.60;;
5010;SDS011;2524;54.364;10.072;2023-07-29T14:21:36;1.43;;;1.33;;
5010;SDS011;2524;54.364;10.072;2023-07-29T14:24:02;5.10;;;2.43;;
5010;SDS011;2524;54.364;10.072;2023-07-29T14:26:27;2.17;;;1.80;;
5010;SDS011;2524;54.364;10.072;2023-07-29T14:28:53;1.93;;;1.70;;
5010;SDS011;2524;54.364;10.072;2023-07-29T14:31:19;2.30;;;2.20;;
5010;SDS011;2524;54.364;10.072;2023-07-29T14:33:44;2.67;;;2.47;;
5010;SDS011;2524;54.364;10.072;2023-07-29T14:36:10;2.43;;;2.23;;
5010;SDS011;2524;54.364;10.072;2023-07-29T14:38:36;2.50;;;2.30;;
5010;SDS011;2524;54.364;10.072;2023-07-29T14:41:02;2.23;;;1.60;;
5010;SDS011;2524;54.364;10.072;2023-07-29T14:43:28;1.93;;;1.83;;
5010;SDS011;2524;54.364;10.072;2023-07-29T14:45:55;2.00;;;1.90;;
5010;SDS011;2524;54.364;10.072;2023-07-29T14:48:20;3.00;;;2.27;;
5010;SDS011;2524;54.364;10.072;2023-07-29T14:50:46;1.90;;;1.80;;
5010;SDS011;2524;54.364;10.072;2023-07-29T14:53:11;2.47;;;1.80;;
5010;SDS011;2524;54.364;10.072;2023-07-29T14:55:37;1.80;;;1.70;;
5010;SDS011;2524;54.364;10.072;2023-07-29T14:58:03;2.00;;;1.90;;
5010;SDS011;2524;54.364;10.072;2023-07-29T15:00:28;2.13;;;2.03;;
5010;SDS011;2524;54.364;10.072;2023-07-29T15:02:54;2.53;;;2.40;;
5010;SDS011;2524;54.364;10.072;2023-07-29T15:05:20;2.93;;;2.00;;
5010;SDS011;2524;54.364;10.072;2023-07-29T15:07:45;2.70;;;2.50;;
5010;SDS011;2524;54.364;10.072;2023-07-29T15:10:13;2.50;;;2.30;;
5010;SDS011;2524;54.364;10.072;2023-07-29T15:12:40;2.80;;;2.20;;
5010;SDS011;2524;54.364;10.072;2023-07-29T15:15:06;2.83;;;2.60;;
5010;SDS011;2524;54.364;10.072;2023-07-29T15:17:33;2.77;;;2.10;;
5010;SDS011;2524;54.364;10.072;2023-07-29T15:19:58;3.03;;;2.40;;
5010;SDS011;2524;54.364;10.072;2023-07-29T15:22:24;3.50;;;2.33;;
5010;SDS011;2524;54.364;10.072;2023-07-29T15:24:49;4.20;;;2.23;;
5010;SDS011;2524;54.364;10.072;2023-07-29T15:27:15;1.80;;;1.70;;
5010;SDS011;2524;54.364;10.072;2023-07-29T15:29:40;1.70;;;1.60;;
5010;SDS011;2524;54.364;10.072;2023-07-29T15:32:06;3.27;;;1.97;;
5010;SDS011;2524;54.364;10.072;2023-07-29T15:34:32;2.00;;;1.90;;
5010;SDS011;2524;54.364;10.072;2023-07-29T15:36:58;3.70;;;1.83;;
5010;SDS011;2524;54.364;10.072;2023-07-29T15:39:23;3.00;;;1.70;;
5010;SDS011;2524;54.364;10.072;2023-07-29T15:41:49;2.50;;;1.83;;
5010;SDS011;2524;54.364;10.072;2023-07-29T15:44:15;2.60;;;1.90;;
5010;SDS011;2524;54.364;10.072;2023-07-29T15:46:41;1.50;;;1.40;;
5010;SDS011;2524;54.364;10.072;2023-07-29T15:49:07;1.87;;;1.77;;
5010;SDS011;2524;54.364;10.072;2023-07-29T15:51:34;2.60;;;1.70;;